x

South Santa Rosa Is. Ca (46069) Wave Buoy

4:50pm - Sun 10th Dec 2017 All times are PST. -8 hours from GMT.

  • Sig Wave height 4.6ft
  • Swell Direction
  • Peak Period 14s
  • Average Period 9s
  • Wind
    7mph, 9mph gusts
  • Sea Temp 60°f
  • Air Temp 65°f
  • Sea Pressure 1018.9mb
  • South Santa Rosa Is. Ca
  • South Santa Rosa Is. Ca

More Historic Weather Station data

Upgrade to MSW Pro to gain access to the past 30 days of data for over 8000 Wavebouys and Weather Stations around the globe.

Join

Comparision Forecast

View Surf forecast
   
Sun 12/10 4:50pm 4.5ft 14s 9s 7 9 mph 1018.9mb 60f 65f
3:50pm 4.5ft 14s 8s 4 7 mph 1018.9mb 60f 65f
2:50pm 5ft 13s 9s 4 7 mph 1018.9mb 60f 65f
1:50pm 4.5ft 14s 8s 7 7 mph 1019.3mb 60f 63f
12:50pm 5ft 13s 8s 9 11 mph 1019.8mb 60f 64f
11:50am 5ft 14s 7s 11 13 mph 1020.4mb 60f 65f
10:50am 5.5ft 14s 7s 16 18 mph 1021mb 60f 65f
9:50am 5.5ft 14s 7s 16 20 mph 1021.2mb 60f 65f
8:50am 5ft 14s 7s 9 11 mph 1021.4mb 60f 64f
7:50am 4.5ft 14s 7s 16 18 mph 1021mb 60f 65f
4:50am 5.5ft 14s 8s 16 18 mph 1020.2mb 60f 65f
3:50am 5.5ft 14s 8s 13 16 mph 1020.3mb 60f 64f
2:50am 5ft 14s 7s 11 13 mph 1020.6mb 60f 64f
1:50am 5ft 14s 9s 16 18 mph 1020.5mb 60f 66f
12:50am 5ft 13s 10s 11 16 mph 1020.7mb 60f 68f
Sat 12/09 11:50pm 4.5ft 15s 10s 13 20 mph 1021mb 60f 69f
10:50pm 5ft 15s 11s 7 9 mph 1021.5mb 60f 63f
8:50pm 4.5ft 14s 11s 4 7 mph 1021.5mb 60f 62f
7:50pm 5ft 14s 12s 9 11 mph 1021.3mb 60f 61f
6:50pm 6ft 14s 12s 4 7 mph 1021.2mb 60f 61f
5:50pm 4.5ft 14s 11s 9 11 mph 1020.9mb 60f 62f
4:50pm 4.5ft 15s 11s 7 7 mph 1020.5mb 61f 63f
3:50pm 5ft 15s 10s 4 7 mph 1020.3mb 60f 62f
2:50pm 5ft 15s 10s 2 2 mph 1020.3mb 60f 64f
1:50pm 5ft 15s 11s 4 7 mph 1020.4mb 60f 63f
12:50pm 5ft 15s 10s 7 9 mph 1020.9mb 60f 63f
11:50am 6ft 15s 12s 9 11 mph 1021.8mb 60f 64f
10:50am 4.5ft 15s 11s 7 9 mph 1022.8mb 60f 63f
9:50am 5ft 15s 12s 4 4 mph 1023.3mb 60f 63f
8:50am 5ft 15s 12s 4 7 mph 1023.2mb 59f 63f
7:50am 5.5ft 15s 13s 7 9 mph 1023mb 59f 60f
6:50am 5.5ft 15s 12s 7 9 mph 1022.4mb 59f 59f
5:50am 5ft 15s 12s 9 11 mph 1022.3mb 59f 59f
4:50am 4.5ft 15s 10s 7 9 mph 1022.2mb 59f 59f
3:50am 4.5ft 15s 10s 7 9 mph 1022.5mb 58f 59f
2:50am 5ft 16s 10s 11 13 mph 1022.8mb 58f 60f
1:50am 4.5ft 16s 9s 9 11 mph 1023.1mb 58f 60f
12:50am 4.5ft 15s 10s 7 9 mph 1023.6mb 58f 60f
Fri 12/08 11:50pm 4.5ft 16s 10s 9 11 mph 1023.9mb 59f 60f
10:50pm 5ft 16s 12s 9 11 mph 1024.4mb 59f 60f
9:50pm 4.5ft 16s 11s 11 13 mph 1024.6mb 59f 59f
8:50pm 4ft 15s 11s 9 9 mph 1024.9mb 59f 59f
7:50pm 5ft 16s 12s 9 9 mph 1024.7mb 59f 60f
6:50pm 4.5ft 16s 12s 11 13 mph 1024.6mb 58f 60f
5:50pm 4ft 16s 11s 9 11 mph 1024.6mb 59f 60f
4:50pm 4ft 15s 11s 11 13 mph 1024.3mb 59f 61f
3:50pm 4ft 15s 11s 9 11 mph 1024.4mb 58f 62f
2:50pm 4ft 16s 10s 9 11 mph 1024.6mb 59f 60f
1:50pm 3.5ft 17s 9s 4 7 mph 1025mb 59f 61f
11:50am 3.5ft 15s 8s 4 7 mph 1026.6mb 58f 60f
10:50am 3.5ft 16s 8s 2 4 mph 1027.4mb 58f 62f
9:50am 3.5ft 16s 8s 11 16 mph 1027.7mb 58f 65f
8:50am 4ft 14s 9s 11 13 mph 1027.7mb 58f 64f
7:50am 3.5ft 16s 8s 7 9 mph 1027.7mb 58f 62f
6:50am 3.5ft 14s 7s 7 9 mph 1027.5mb 58f 62f
5:50am 3.5ft 14s 8s 7 7 mph 1027.2mb 58f 62f
4:50am 3.5ft 14s 7s 9 9 mph 1027mb 59f 61f
3:50am 3.5ft 13s 8s 9 11 mph 1027mb 59f 63f
2:50am 3.5ft 13s 7s 9 11 mph 1027.4mb 59f 63f
1:50am 3.5ft 14s 7s 7 7 mph 1027.8mb 59f 62f
12:50am 4ft 14s 7s 7 9 mph 1028.2mb 59f 61f
Thu 12/07 11:50pm 3.5ft 15s 6s 4 4 mph 1028.9mb 59f 60f
10:50pm 4ft 13s 7s 9 11 mph 1028.6mb 59f 61f
9:50pm 3.5ft 13s 7s 7 9 mph 1028.2mb 59f 61f
8:50pm 4.5ft 14s 8s 7 9 mph 1027.8mb 59f 61f
7:50pm 4ft 14s 8s 9 11 mph 1027.4mb 59f 61f
6:50pm 3.5ft 15s 7s 4 7 mph 1027mb 59f 63f
5:50pm 3.5ft 14s 7s 7 9 mph 1026.5mb 60f 68f
4:50pm 4ft 14s 7s 2 7 mph 1025.6mb 60f 65f
3:50pm 4.5ft 14s 7s 4 4 mph 1024.9mb 60f 65f
2:50pm 4.5ft 14s 6s 7 7 mph 1024.6mb 60f 65f
1:50pm 4.5ft 14s 6s 2 4 mph 1024.7mb 60f 63f
12:50pm 5.5ft 14s 6s 4 7 mph 1024.9mb 59f 63f
11:50am 5.5ft 6s 5s 9 11 mph 1025.4mb 59f 63f
10:50am 7ft 6s 6s 25 29 mph 1025mb 59f 65f
9:50am 6ft 6s 6s 22 27 mph 1025.3mb 59f 64f
8:50am 6ft 14s 6s 25 34 mph 1024.7mb 59f 64f
7:50am 6ft 14s 6s 22 27 mph 1024.3mb 59f 64f
6:50am 5.5ft 13s 6s 22 27 mph 1024.2mb 59f 65f
5:50am 5.5ft 15s 6s 22 27 mph 1024.2mb 59f 65f
4:50am 5.5ft 15s 6s 18 20 mph 1023.9mb 60f 64f
3:50am 5ft 16s 6s 20 22 mph 1023.8mb 59f 65f
2:50am 5.5ft 14s 6s 16 18 mph 1023.7mb 59f 64f